createdAt,value
2018-11-21T00:02:36.216Z,-1.20
2018-11-21T00:05:25.666Z,-1.20
2018-11-21T00:08:07.953Z,-1.30
2018-11-21T00:10:57.420Z,-1.40
2018-11-21T00:13:40.029Z,-1.30
2018-11-21T00:16:29.468Z,-1.30
2018-11-21T00:19:11.792Z,-1.40
2018-11-21T00:22:01.785Z,-1.40
2018-11-21T00:24:42.975Z,-1.40
2018-11-21T00:27:32.431Z,-1.50
2018-11-21T00:30:15.873Z,-1.50
2018-11-21T00:33:05.333Z,-1.40
2018-11-21T00:35:47.985Z,-1.40
2018-11-21T00:38:37.441Z,-1.30
2018-11-21T00:41:23.304Z,-1.40
2018-11-21T00:44:13.357Z,-1.40
2018-11-21T00:46:55.352Z,-1.40
2018-11-21T00:49:45.123Z,-1.50
2018-11-21T00:52:27.526Z,-1.50
2018-11-21T00:55:16.970Z,-1.50
2018-11-21T00:57:59.234Z,-1.50
2018-11-21T01:00:29.351Z,-1.40
2018-11-21T01:03:11.835Z,-1.40
2018-11-21T01:06:01.289Z,-1.40
2018-11-21T01:08:43.724Z,-1.40
2018-11-21T01:11:33.202Z,-1.40
2018-11-21T01:14:15.249Z,-1.40
2018-11-21T01:20:07.088Z,-1.30
2018-11-21T01:22:49.022Z,-1.50
2018-11-21T01:25:38.485Z,-1.40
2018-11-21T01:28:21.301Z,-1.30
2018-11-21T01:31:10.769Z,-1.30
2018-11-21T01:33:53.503Z,-1.30
2018-11-21T01:36:43.040Z,-1.30
2018-11-21T01:39:25.491Z,-1.30
2018-11-21T01:42:14.943Z,-1.30
2018-11-21T01:44:57.769Z,-1.30
2018-11-21T01:47:47.213Z,-1.30
2018-11-21T01:50:29.194Z,-1.40
2018-11-21T01:53:18.674Z,-1.30
2018-11-21T01:56:01.331Z,-1.20
2018-11-21T01:58:50.804Z,-1.20
2018-11-21T02:01:33.097Z,-1.20
2018-11-21T02:04:22.546Z,-1.10
2018-11-21T02:07:05.117Z,-1.00
2018-11-21T02:09:54.573Z,-1.00
2018-11-21T02:12:37.103Z,-1.00
2018-11-21T02:15:26.556Z,-1.00
2018-11-21T02:18:08.946Z,-1.00
2018-11-21T02:20:59.221Z,-0.90
2018-11-21T02:23:41.418Z,-1.00
2018-11-21T02:26:30.869Z,-0.90
2018-11-21T02:29:13.416Z,-1.00
2018-11-21T02:32:02.870Z,-1.10
2018-11-21T02:34:45.041Z,-1.20
2018-11-21T02:37:34.484Z,-1.10
2018-11-21T02:40:17.177Z,-1.20
2018-11-21T02:43:06.631Z,-1.10
2018-11-21T02:45:49.036Z,-1.10
2018-11-21T02:48:38.504Z,-1.20
2018-11-21T02:51:20.861Z,-1.30
2018-11-21T02:54:10.298Z,-1.20
2018-11-21T02:57:11.986Z,-1.20
2018-11-21T03:00:40.114Z,-1.10
2018-11-21T03:03:22.446Z,-1.20
2018-11-21T03:06:11.905Z,-1.10
2018-11-21T03:08:54.308Z,-1.10
2018-11-21T03:11:43.777Z,-1.10
2018-11-21T03:14:26.460Z,-1.10
2018-11-21T03:17:15.900Z,-0.90
2018-11-21T03:19:58.219Z,-0.70
2018-11-21T03:22:47.885Z,-0.70
2018-11-21T03:25:28.597Z,-0.80
2018-11-21T03:28:18.034Z,-0.90
2018-11-21T03:31:00.375Z,-1.00
2018-11-21T03:33:57.564Z,-1.10
2018-11-21T03:36:32.583Z,-1.00
2018-11-21T03:39:23.120Z,-1.10
2018-11-21T03:42:05.856Z,-1.10
2018-11-21T03:44:55.505Z,-1.00
2018-11-21T03:47:37.665Z,-1.00
2018-11-21T03:50:27.099Z,-1.20
2018-11-21T03:53:09.287Z,-1.20
2018-11-21T03:55:58.680Z,-1.20
2018-11-21T03:58:41.521Z,-1.20
2018-11-21T04:01:31.036Z,-1.30
2018-11-21T04:04:13.520Z,-1.30
2018-11-21T04:07:02.968Z,-1.30
2018-11-21T04:09:45.339Z,-1.10
2018-11-21T04:12:34.800Z,-1.20
2018-11-21T04:15:17.072Z,-1.10
2018-11-21T04:18:07.092Z,-1.00
2018-11-21T04:20:49.792Z,-1.10
2018-11-21T04:23:39.248Z,-1.10
2018-11-21T04:26:21.686Z,-1.20
2018-11-21T04:29:11.140Z,-0.90
2018-11-21T04:31:53.504Z,-1.00
2018-11-21T04:34:42.961Z,-1.10
2018-11-21T04:37:25.256Z,-1.00
2018-11-21T04:40:14.702Z,-1.00
2018-11-21T04:42:57.152Z,-1.00
2018-11-21T04:45:46.619Z,-0.90
2018-11-21T04:48:28.595Z,-0.90
2018-11-21T04:54:19.758Z,-1.00
2018-11-21T04:57:01.991Z,-1.10
2018-11-21T04:59:51.418Z,-1.00
2018-11-21T05:02:33.747Z,-1.10
2018-11-21T05:05:23.207Z,-1.10
2018-11-21T05:08:06.043Z,-1.00
2018-11-21T05:10:55.496Z,-1.00
2018-11-21T05:13:37.868Z,-1.10
2018-11-21T05:19:29.035Z,-1.10
2018-11-21T05:22:11.250Z,-1.10
2018-11-21T05:25:00.716Z,-1.10
2018-11-21T05:27:41.194Z,-1.10
2018-11-21T05:30:30.643Z,-1.00
2018-11-21T05:33:13.409Z,-1.00
2018-11-21T05:36:02.886Z,-1.10
2018-11-21T05:38:45.298Z,-1.10
2018-11-21T05:41:34.751Z,-1.10
2018-11-21T05:44:17.964Z,-1.00
2018-11-21T05:47:06.814Z,-1.10
2018-11-21T05:49:49.443Z,-1.10
2018-11-21T05:52:38.858Z,-1.10
2018-11-21T05:55:21.329Z,-1.10
2018-11-21T05:58:10.772Z,-1.10
2018-11-21T06:00:53.584Z,-1.10
2018-11-21T06:03:43.032Z,-1.10
2018-11-21T06:06:23.498Z,-1.10
2018-11-21T06:09:13.376Z,-1.10
2018-11-21T06:11:55.830Z,-1.10
2018-11-21T06:14:45.293Z,-1.00
2018-11-21T06:17:27.570Z,-1.10
2018-11-21T06:20:17.011Z,-1.00
2018-11-21T06:22:59.334Z,-1.00
2018-11-21T06:25:48.711Z,-0.90
2018-11-21T06:28:31.090Z,-0.80
2018-11-21T06:31:20.529Z,-0.80
2018-11-21T06:34:03.588Z,-0.80
2018-11-21T06:36:53.063Z,-1.00
2018-11-21T06:39:35.157Z,-1.10
2018-11-21T06:42:24.594Z,-1.00
2018-11-21T06:45:07.833Z,-0.90
2018-11-21T06:47:57.284Z,-0.90
2018-11-21T06:50:39.490Z,-0.80
2018-11-21T06:53:28.930Z,-0.80
2018-11-21T06:56:11.474Z,-0.70
2018-11-21T06:58:55.244Z,-0.60
2018-11-21T07:01:37.099Z,-0.60
2018-11-21T07:04:26.524Z,-0.50
2018-11-21T07:07:08.724Z,-0.50
2018-11-21T07:09:58.189Z,-0.50
2018-11-21T07:12:40.991Z,-0.40
2018-11-21T07:15:30.453Z,-0.40
2018-11-21T07:18:12.608Z,-0.30
2018-11-21T07:21:02.512Z,-0.20
2018-11-21T07:23:44.513Z,-0.30
2018-11-21T07:26:34.001Z,-0.20
2018-11-21T07:29:16.314Z,0.00
2018-11-21T07:35:07.573Z,0.10
2018-11-21T07:37:49.899Z,0.30
2018-11-21T07:40:39.321Z,0.40
2018-11-21T07:43:21.912Z,0.50
2018-11-21T07:46:11.342Z,0.60
2018-11-21T07:48:53.503Z,0.70
2018-11-21T07:51:42.926Z,0.70
2018-11-21T07:54:25.451Z,0.80
2018-11-21T07:57:35.616Z,0.80
2018-11-21T08:01:02.255Z,0.90
2018-11-21T08:04:10.683Z,0.90
2018-11-21T08:06:56.950Z,1.20
2018-11-21T08:09:57.584Z,1.10
2018-11-21T08:12:59.075Z,1.20
2018-11-21T08:16:03.069Z,1.10
2018-11-21T08:19:04.536Z,1.20
2018-11-21T08:22:12.965Z,1.40
2018-11-21T08:25:13.901Z,1.40
2018-11-21T08:28:22.323Z,1.40
2018-11-21T08:31:02.832Z,1.60
2018-11-21T08:33:52.268Z,1.70
2018-11-21T08:36:34.527Z,1.90
2018-11-21T08:39:24.015Z,1.80
2018-11-21T08:42:06.414Z,1.60
2018-11-21T08:44:55.926Z,1.60
2018-11-21T08:47:38.032Z,1.30
2018-11-21T08:50:27.481Z,1.30
2018-11-21T08:53:09.845Z,1.60
2018-11-21T08:55:59.282Z,1.80
2018-11-21T08:58:41.756Z,1.80
2018-11-21T09:01:31.200Z,1.90
2018-11-21T09:04:13.487Z,1.80
2018-11-21T09:07:02.916Z,1.90
2018-11-21T09:09:45.611Z,1.80
2018-11-21T09:12:35.053Z,1.80
2018-11-21T09:15:18.259Z,1.90
2018-11-21T09:18:07.693Z,1.90
2018-11-21T09:20:49.857Z,2.00
2018-11-21T09:23:39.315Z,2.30
2018-11-21T09:26:21.962Z,2.30
2018-11-21T09:29:11.512Z,2.30
2018-11-21T09:31:53.548Z,2.30
2018-11-21T09:34:43.423Z,2.50
2018-11-21T09:37:26.164Z,2.50
2018-11-21T09:40:17.351Z,2.80
2018-11-21T09:42:59.639Z,2.80
2018-11-21T09:45:49.075Z,2.80
2018-11-21T09:48:31.412Z,2.80
2018-11-21T09:51:20.854Z,3.10
2018-11-21T09:54:03.353Z,2.90
2018-11-21T09:56:52.816Z,2.90
2018-11-21T09:59:34.891Z,2.70
2018-11-21T10:03:03.009Z,2.90
2018-11-21T10:05:46.215Z,3.10
2018-11-21T10:08:37.571Z,3.20
2018-11-21T10:11:20.699Z,2.70
2018-11-21T10:14:10.132Z,2.50
2018-11-21T10:16:50.568Z,2.50
2018-11-21T10:19:39.986Z,2.50
2018-11-21T10:22:22.782Z,2.60
2018-11-21T10:25:12.208Z,2.60
2018-11-21T10:27:54.410Z,2.80
2018-11-21T10:30:43.850Z,2.70
2018-11-21T10:33:26.592Z,2.70
2018-11-21T10:36:16.033Z,2.70
2018-11-21T10:38:58.576Z,2.60
2018-11-21T10:41:48.012Z,2.60
2018-11-21T10:44:30.160Z,2.80
2018-11-21T10:47:19.744Z,2.90
2018-11-21T10:50:02.047Z,3.30
2018-11-21T10:52:51.479Z,3.60
2018-11-21T10:55:32.128Z,3.60
2018-11-21T10:58:21.563Z,3.70
2018-11-21T11:01:22.968Z,3.70
2018-11-21T11:04:32.889Z,3.60
2018-11-21T11:07:39.497Z,3.50
2018-11-21T11:10:42.833Z,3.50
2018-11-21T11:13:47.866Z,3.50
2018-11-21T11:16:56.314Z,3.60
2018-11-21T11:19:56.310Z,3.60
2018-11-21T11:23:04.737Z,3.50
2018-11-21T11:26:06.570Z,3.60
2018-11-21T11:29:14.995Z,3.50
2018-11-21T11:32:16.289Z,3.50
2018-11-21T11:35:19.035Z,3.50
2018-11-21T11:38:26.062Z,3.60
2018-11-21T11:41:34.487Z,3.80
2018-11-21T11:44:35.820Z,3.90
2018-11-21T11:47:44.266Z,3.80
2018-11-21T11:50:45.908Z,3.60
2018-11-21T11:53:54.358Z,3.60
2018-11-21T11:56:55.482Z,3.70
2018-11-21T12:00:03.926Z,3.80
2018-11-21T12:03:05.458Z,3.40
2018-11-21T12:06:13.908Z,3.50
2018-11-21T12:09:14.929Z,3.40
2018-11-21T12:12:23.367Z,3.40
2018-11-21T12:15:22.294Z,3.30
2018-11-21T12:18:30.722Z,3.30
2018-11-21T12:21:32.125Z,3.40
2018-11-21T12:24:40.574Z,3.50
2018-11-21T12:27:41.509Z,3.50
2018-11-21T12:30:49.955Z,3.30
2018-11-21T12:33:51.422Z,3.50
2018-11-21T12:36:59.863Z,3.60
2018-11-21T12:40:01.131Z,3.50
2018-11-21T12:43:13.251Z,3.50
2018-11-21T12:46:10.637Z,3.50
2018-11-21T12:49:19.117Z,3.40
2018-11-21T12:52:20.357Z,3.40
2018-11-21T12:55:28.834Z,3.50
2018-11-21T12:58:29.753Z,3.50
2018-11-21T13:01:38.205Z,3.60
2018-11-21T13:04:29.806Z,3.50
2018-11-21T13:07:37.982Z,3.40
2018-11-21T13:10:39.315Z,3.60
2018-11-21T13:13:47.757Z,3.60
2018-11-21T13:16:48.988Z,3.50
2018-11-21T13:19:57.441Z,3.60
2018-11-21T13:22:48.238Z,3.60
2018-11-21T13:25:56.703Z,3.50
2018-11-21T13:29:00.351Z,3.00
2018-11-21T13:32:09.079Z,2.90
2018-11-21T13:38:23.121Z,3.10
2018-11-21T13:41:16.084Z,3.00
2018-11-21T13:47:36.099Z,3.20
2018-11-21T13:50:43.535Z,3.10
2018-11-21T13:53:51.982Z,3.10
2018-11-21T13:56:34.508Z,2.80
2018-11-21T13:59:23.946Z,2.70
2018-11-21T14:02:06.489Z,2.80
2018-11-21T14:04:56.003Z,2.80
2018-11-21T14:07:38.022Z,2.70
2018-11-21T14:10:27.450Z,2.70
2018-11-21T14:13:09.621Z,2.70
2018-11-21T14:15:59.047Z,2.40
2018-11-21T14:18:41.300Z,2.30
2018-11-21T14:21:30.723Z,2.30
2018-11-21T14:24:13.601Z,2.40
2018-11-21T14:27:03.042Z,2.40
2018-11-21T14:29:45.423Z,2.40
2018-11-21T14:32:34.844Z,2.50
2018-11-21T14:35:17.652Z,2.50
2018-11-21T14:38:07.164Z,2.30
2018-11-21T14:40:49.264Z,2.30
2018-11-21T14:43:38.686Z,2.10
2018-11-21T14:46:20.940Z,2.00
2018-11-21T14:49:10.379Z,1.90
2018-11-21T14:51:52.404Z,1.90
2018-11-21T14:54:41.832Z,1.80
2018-11-21T14:57:24.223Z,1.80
2018-11-21T15:00:16.510Z,1.70
2018-11-21T15:02:59.132Z,1.70
2018-11-21T15:05:48.558Z,1.60
2018-11-21T15:08:30.532Z,1.60
2018-11-21T15:11:19.959Z,1.60
2018-11-21T15:14:02.546Z,1.40
2018-11-21T15:16:51.968Z,1.50
2018-11-21T15:19:34.509Z,1.50
2018-11-21T15:22:23.992Z,1.40
2018-11-21T15:25:06.959Z,1.30
2018-11-21T15:27:56.385Z,1.20
2018-11-21T15:30:39.024Z,1.20
2018-11-21T15:33:28.446Z,1.30
2018-11-21T15:36:10.893Z,1.30
2018-11-21T15:39:00.331Z,1.20
2018-11-21T15:41:42.750Z,1.20
2018-11-21T15:44:32.241Z,1.20
2018-11-21T15:47:14.765Z,1.20
2018-11-21T15:50:04.939Z,1.10
2018-11-21T15:52:52.733Z,1.00
2018-11-21T15:55:36.655Z,1.00
2018-11-21T15:58:18.680Z,0.90
2018-11-21T16:01:08.119Z,0.80
2018-11-21T16:03:50.649Z,0.80
2018-11-21T16:06:40.912Z,0.90
2018-11-21T16:09:23.380Z,0.80
2018-11-21T16:12:12.808Z,0.70
2018-11-21T16:14:55.682Z,0.60
2018-11-21T16:17:45.160Z,0.80
2018-11-21T16:20:27.977Z,0.80
2018-11-21T16:23:17.408Z,0.80
2018-11-21T16:26:00.020Z,0.70
2018-11-21T16:28:49.429Z,0.80
2018-11-21T16:31:31.952Z,0.80
2018-11-21T16:34:05.588Z,1.10
2018-11-21T16:36:48.209Z,1.10
2018-11-21T16:39:37.669Z,1.10
2018-11-21T16:42:40.277Z,0.90
2018-11-21T16:45:48.732Z,0.80
2018-11-21T16:48:32.009Z,0.80
2018-11-21T16:51:21.454Z,0.90
2018-11-21T16:54:03.796Z,0.80
2018-11-21T16:56:53.236Z,0.80
2018-11-21T16:59:35.579Z,0.70
2018-11-21T17:02:25.018Z,0.70
2018-11-21T17:05:07.963Z,0.80
2018-11-21T17:07:57.384Z,0.80
2018-11-21T17:10:39.877Z,0.70
2018-11-21T17:13:29.317Z,0.50
2018-11-21T17:16:11.668Z,0.60
2018-11-21T17:19:01.290Z,0.50
2018-11-21T17:21:43.843Z,0.70
2018-11-21T17:24:33.540Z,0.70
2018-11-21T17:27:16.115Z,0.70
2018-11-21T17:30:07.252Z,0.80
2018-11-21T17:32:50.166Z,0.80
2018-11-21T17:35:39.636Z,0.80
2018-11-21T17:38:21.861Z,0.80
2018-11-21T17:41:11.281Z,0.80
2018-11-21T17:43:53.704Z,0.70
2018-11-21T17:46:43.342Z,0.60
2018-11-21T17:49:23.841Z,0.80
2018-11-21T17:52:13.442Z,0.80
2018-11-21T17:54:55.725Z,0.80
2018-11-21T17:57:45.220Z,0.70
2018-11-21T18:00:29.376Z,1.00
2018-11-21T18:03:18.823Z,1.00
2018-11-21T18:06:00.880Z,0.90
2018-11-21T18:08:50.320Z,0.70
2018-11-21T18:11:33.296Z,0.70
2018-11-21T18:14:22.961Z,0.70
2018-11-21T18:17:05.354Z,0.60
2018-11-21T18:19:54.864Z,0.60
2018-11-21T18:22:37.132Z,0.70
2018-11-21T18:25:28.581Z,0.70
2018-11-21T18:28:10.681Z,0.50
2018-11-21T18:30:40.955Z,0.50
2018-11-21T18:33:12.009Z,0.50
2018-11-21T18:36:01.043Z,0.50
2018-11-21T18:38:41.580Z,0.50
2018-11-21T18:41:31.034Z,0.50
2018-11-21T18:44:13.446Z,0.60
2018-11-21T18:47:03.393Z,0.70
2018-11-21T18:49:46.290Z,0.70
2018-11-21T18:52:36.207Z,0.70
2018-11-21T18:55:20.459Z,0.80
2018-11-21T18:58:48.985Z,0.80
2018-11-21T19:01:19.227Z,0.70
2018-11-21T19:04:08.732Z,0.60
2018-11-21T19:06:51.027Z,0.60
2018-11-21T19:09:40.496Z,0.60
2018-11-21T19:12:23.602Z,0.50
2018-11-21T19:15:16.588Z,0.50
2018-11-21T19:17:59.067Z,0.50
2018-11-21T19:20:48.523Z,0.50
2018-11-21T19:23:31.190Z,0.60
2018-11-21T19:26:21.110Z,0.50
2018-11-21T19:29:03.525Z,0.50
2018-11-21T19:31:53.284Z,0.40
2018-11-21T19:34:35.801Z,0.40
2018-11-21T19:37:25.663Z,0.30
2018-11-21T19:40:08.855Z,0.30
2018-11-21T19:42:58.307Z,0.40
2018-11-21T19:45:41.167Z,0.30
2018-11-21T19:48:30.675Z,0.40
2018-11-21T19:51:12.703Z,0.50
2018-11-21T19:54:21.869Z,0.60
2018-11-21T19:57:04.884Z,0.60
2018-11-21T19:59:54.330Z,0.50
2018-11-21T20:02:36.882Z,0.60
2018-11-21T20:05:27.724Z,0.50
2018-11-21T20:08:10.480Z,0.40
2018-11-21T20:10:59.961Z,0.50
2018-11-21T20:13:42.557Z,0.40
2018-11-21T20:16:32.121Z,0.50
2018-11-21T20:19:14.777Z,0.50
2018-11-21T20:22:04.401Z,0.50
2018-11-21T20:24:46.437Z,0.60
2018-11-21T20:27:36.091Z,0.60
2018-11-21T20:30:29.626Z,0.40
2018-11-21T20:33:19.074Z,0.30
2018-11-21T20:36:01.337Z,0.30
2018-11-21T20:38:50.801Z,0.30
2018-11-21T20:41:31.508Z,0.20
2018-11-21T20:44:20.959Z,0.20
2018-11-21T20:47:07.373Z,0.20
2018-11-21T20:49:57.243Z,0.20
2018-11-21T20:52:40.212Z,0.10
2018-11-21T20:55:30.999Z,0.20
2018-11-21T20:58:13.437Z,0.20
2018-11-21T21:01:02.871Z,0.20
2018-11-21T21:03:45.376Z,0.40
2018-11-21T21:06:34.840Z,0.30
2018-11-21T21:09:17.200Z,0.40
2018-11-21T21:12:09.834Z,0.40
2018-11-21T21:14:52.392Z,0.40
2018-11-21T21:17:42.616Z,0.40
2018-11-21T21:20:26.501Z,0.40
2018-11-21T21:23:15.960Z,0.40
2018-11-21T21:25:57.946Z,0.50
2018-11-21T21:28:47.388Z,0.40
2018-11-21T21:31:29.496Z,0.40
2018-11-21T21:34:19.247Z,0.30
2018-11-21T21:37:01.720Z,0.30
2018-11-21T21:39:51.159Z,0.20
2018-11-21T21:42:33.164Z,0.30
2018-11-21T21:45:24.159Z,0.30
2018-11-21T21:48:06.407Z,0.30
2018-11-21T21:50:55.839Z,0.30
2018-11-21T21:53:36.538Z,0.30
2018-11-21T21:56:26.027Z,0.20
2018-11-21T21:59:08.054Z,0.20
2018-11-21T22:01:57.508Z,0.10
2018-11-21T22:04:46.982Z,0.30
2018-11-21T22:07:29.624Z,0.60
2018-11-21T22:10:20.025Z,0.70
2018-11-21T22:13:02.263Z,0.60
2018-11-21T22:15:51.729Z,0.50
2018-11-21T22:18:34.148Z,0.50
2018-11-21T22:21:23.592Z,0.40
2018-11-21T22:24:05.839Z,0.40
2018-11-21T22:26:55.300Z,0.40
2018-11-21T22:29:37.871Z,0.30
2018-11-21T22:32:27.322Z,0.10
2018-11-21T22:35:09.664Z,0.10
2018-11-21T22:37:59.114Z,0.20
2018-11-21T22:40:41.668Z,0.30
2018-11-21T22:43:31.127Z,0.30
2018-11-21T22:46:13.607Z,0.40
2018-11-21T22:49:03.300Z,0.40
2018-11-21T22:51:47.566Z,0.30
2018-11-21T22:54:33.253Z,0.30
2018-11-21T22:57:15.718Z,0.30
2018-11-21T23:00:46.398Z,0.20
2018-11-21T23:03:28.806Z,0.30
2018-11-21T23:06:18.252Z,0.40
2018-11-21T23:09:00.288Z,0.30
2018-11-21T23:11:49.725Z,0.40
2018-11-21T23:14:31.935Z,0.30
2018-11-21T23:17:21.378Z,0.30
2018-11-21T23:20:04.945Z,0.20
2018-11-21T23:22:54.417Z,0.30
2018-11-21T23:25:36.501Z,0.30
2018-11-21T23:28:25.934Z,0.30
2018-11-21T23:31:08.806Z,0.30
2018-11-21T23:33:58.430Z,0.30
2018-11-21T23:36:40.736Z,0.30
2018-11-21T23:39:30.188Z,0.20
2018-11-21T23:42:12.447Z,0.10
2018-11-21T23:45:01.904Z,0.10
2018-11-21T23:47:44.423Z,0.20
2018-11-21T23:50:53.372Z,0.30
2018-11-21T23:53:35.469Z,0.30
2018-11-21T23:56:24.915Z,0.30
2018-11-21T23:59:07.425Z,0.40
